sensor_id;sensor_type;location;lat;lon;timestamp;P1;durP1;ratioP1;P2;durP2;ratioP2
12721;SDS011;6425;50.316;8.114;2023-06-19T00:00:00;12.1;;;10.9;;
12721;SDS011;6425;50.316;8.114;2023-06-19T00:03:00;12.1;;;10.9;;
12721;SDS011;6425;50.316;8.114;2023-06-19T00:06:00;11.8;;;10.6;;
12721;SDS011;6425;50.316;8.114;2023-06-19T00:09:00;11.8;;;10.6;;
12721;SDS011;6425;50.316;8.114;2023-06-19T00:12:00;12.2;;;11;;
12721;SDS011;6425;50.316;8.114;2023-06-19T00:15:00;11.5;;;10.5;;
12721;SDS011;6425;50.316;8.114;2023-06-19T00:18:00;11.5;;;10.5;;
12721;SDS011;6425;50.316;8.114;2023-06-19T00:21:00;12.9;;;11.5;;
12721;SDS011;6425;50.316;8.114;2023-06-19T00:24:00;12.9;;;11.5;;
12721;SDS011;6425;50.316;8.114;2023-06-19T00:27:00;12.2;;;11.1;;
12721;SDS011;6425;50.316;8.114;2023-06-19T00:30:00;12.3;;;11.1;;
12721;SDS011;6425;50.316;8.114;2023-06-19T00:33:00;12.3;;;11.1;;
12721;SDS011;6425;50.316;8.114;2023-06-19T00:36:00;12.6;;;11.3;;
12721;SDS011;6425;50.316;8.114;2023-06-19T00:39:00;12.6;;;11.3;;
12721;SDS011;6425;50.316;8.114;2023-06-19T00:42:00;13.2;;;11.9;;
12721;SDS011;6425;50.316;8.114;2023-06-19T00:45:00;11.8;;;10.7;;
12721;SDS011;6425;50.316;8.114;2023-06-19T00:48:00;11.8;;;10.7;;
12721;SDS011;6425;50.316;8.114;2023-06-19T00:51:00;12;;;10.8;;
12721;SDS011;6425;50.316;8.114;2023-06-19T00:54:00;11.7;;;10.5;;
12721;SDS011;6425;50.316;8.114;2023-06-19T00:57:00;11.7;;;10.5;;
12721;SDS011;6425;50.316;8.114;2023-06-19T01:00:00;11.9;;;10.6;;
12721;SDS011;6425;50.316;8.114;2023-06-19T01:03:00;11.9;;;10.6;;
12721;SDS011;6425;50.316;8.114;2023-06-19T01:06:00;11.8;;;10.6;;
12721;SDS011;6425;50.316;8.114;2023-06-19T01:09:01;13.6;;;12.2;;
12721;SDS011;6425;50.316;8.114;2023-06-19T01:12:01;13.6;;;12.2;;
12721;SDS011;6425;50.316;8.114;2023-06-19T01:15:00;13.2;;;11.9;;
12721;SDS011;6425;50.316;8.114;2023-06-19T01:18:00;13.2;;;11.9;;
12721;SDS011;6425;50.316;8.114;2023-06-19T01:21:08;14.3;;;11.6;;
12721;SDS011;6425;50.316;8.114;2023-06-19T01:24:00;12.1;;;10.9;;
12721;SDS011;6425;50.316;8.114;2023-06-19T01:27:00;12.1;;;10.9;;
12721;SDS011;6425;50.316;8.114;2023-06-19T01:30:01;12;;;10.2;;
12721;SDS011;6425;50.316;8.114;2023-06-19T01:33:02;12;;;10.2;;
12721;SDS011;6425;50.316;8.114;2023-06-19T01:36:00;11.6;;;10.5;;
12721;SDS011;6425;50.316;8.114;2023-06-19T01:39:00;14.8;;;12.2;;
12721;SDS011;6425;50.316;8.114;2023-06-19T01:42:00;14.8;;;12.2;;
12721;SDS011;6425;50.316;8.114;2023-06-19T01:45:00;14.8;;;11.1;;
12721;SDS011;6425;50.316;8.114;2023-06-19T01:48:00;14.8;;;11.1;;
12721;SDS011;6425;50.316;8.114;2023-06-19T01:51:00;14.1;;;10.6;;
12721;SDS011;6425;50.316;8.114;2023-06-19T01:54:00;14.1;;;12.8;;
12721;SDS011;6425;50.316;8.114;2023-06-19T01:57:00;14.1;;;12.8;;
12721;SDS011;6425;50.316;8.114;2023-06-19T02:00:00;16.3;;;14.7;;
12721;SDS011;6425;50.316;8.114;2023-06-19T02:03:00;16.3;;;14.7;;
12721;SDS011;6425;50.316;8.114;2023-06-19T02:06:00;13.9;;;12.5;;
12721;SDS011;6425;50.316;8.114;2023-06-19T02:09:00;15;;;13.5;;
12721;SDS011;6425;50.316;8.114;2023-06-19T02:12:00;15;;;13.5;;
12721;SDS011;6425;50.316;8.114;2023-06-19T02:15:00;14.5;;;13.1;;
12721;SDS011;6425;50.316;8.114;2023-06-19T02:18:00;14.5;;;13.1;;
12721;SDS011;6425;50.316;8.114;2023-06-19T02:21:00;16.1;;;12.6;;
12721;SDS011;6425;50.316;8.114;2023-06-19T02:24:00;13.5;;;12.1;;
12721;SDS011;6425;50.316;8.114;2023-06-19T02:27:00;13.5;;;12.1;;
12721;SDS011;6425;50.316;8.114;2023-06-19T02:30:00;12.9;;;11.3;;
12721;SDS011;6425;50.316;8.114;2023-06-19T02:33:00;12.9;;;11.3;;
12721;SDS011;6425;50.316;8.114;2023-06-19T02:36:00;12.7;;;11.4;;
12721;SDS011;6425;50.316;8.114;2023-06-19T02:39:00;14.1;;;11.7;;
12721;SDS011;6425;50.316;8.114;2023-06-19T02:42:00;14.1;;;11.7;;
12721;SDS011;6425;50.316;8.114;2023-06-19T02:45:00;13.8;;;12.3;;
12721;SDS011;6425;50.316;8.114;2023-06-19T02:48:00;13.8;;;12.3;;
12721;SDS011;6425;50.316;8.114;2023-06-19T02:51:00;15.7;;;11.9;;
12721;SDS011;6425;50.316;8.114;2023-06-19T02:54:00;15.2;;;11.6;;
12721;SDS011;6425;50.316;8.114;2023-06-19T02:57:00;15.2;;;11.6;;
12721;SDS011;6425;50.316;8.114;2023-06-19T03:00:00;13.2;;;11.7;;
12721;SDS011;6425;50.316;8.114;2023-06-19T03:03:00;13.2;;;11.7;;
12721;SDS011;6425;50.316;8.114;2023-06-19T03:06:00;14.2;;;12.1;;
12721;SDS011;6425;50.316;8.114;2023-06-19T03:09:00;14.6;;;12.1;;
12721;SDS011;6425;50.316;8.114;2023-06-19T03:12:00;14.6;;;12.1;;
12721;SDS011;6425;50.316;8.114;2023-06-19T03:15:00;14.6;;;12.8;;
12721;SDS011;6425;50.316;8.114;2023-06-19T03:18:00;14.6;;;12.8;;
12721;SDS011;6425;50.316;8.114;2023-06-19T03:21:00;12.6;;;11.3;;
12721;SDS011;6425;50.316;8.114;2023-06-19T03:24:00;14.3;;;11.4;;
12721;SDS011;6425;50.316;8.114;2023-06-19T03:27:00;14.3;;;11.4;;
12721;SDS011;6425;50.316;8.114;2023-06-19T03:30:00;16.2;;;10.9;;
12721;SDS011;6425;50.316;8.114;2023-06-19T03:33:00;16.2;;;10.9;;
12721;SDS011;6425;50.316;8.114;2023-06-19T03:36:00;17.7;;;11.5;;
12721;SDS011;6425;50.316;8.114;2023-06-19T03:39:00;17.4;;;11;;
12721;SDS011;6425;50.316;8.114;2023-06-19T03:42:00;17.4;;;11;;
12721;SDS011;6425;50.316;8.114;2023-06-19T03:45:00;15.8;;;11.1;;
12721;SDS011;6425;50.316;8.114;2023-06-19T03:48:00;15.8;;;11.1;;
12721;SDS011;6425;50.316;8.114;2023-06-19T03:51:00;20.5;;;13.2;;
12721;SDS011;6425;50.316;8.114;2023-06-19T03:54:00;18.3;;;12.8;;
12721;SDS011;6425;50.316;8.114;2023-06-19T03:57:00;18.3;;;12.8;;
12721;SDS011;6425;50.316;8.114;2023-06-19T04:00:00;17.7;;;10.7;;
12721;SDS011;6425;50.316;8.114;2023-06-19T04:03:00;17.7;;;10.7;;
12721;SDS011;6425;50.316;8.114;2023-06-19T04:06:00;15.3;;;10.8;;
12721;SDS011;6425;50.316;8.114;2023-06-19T04:09:00;15.6;;;8.6;;
12721;SDS011;6425;50.316;8.114;2023-06-19T04:12:00;15.6;;;8.6;;
12721;SDS011;6425;50.316;8.114;2023-06-19T04:15:00;10;;;7;;
12721;SDS011;6425;50.316;8.114;2023-06-19T04:18:00;10;;;7;;
12721;SDS011;6425;50.316;8.114;2023-06-19T04:21:00;6.5;;;5.6;;
12721;SDS011;6425;50.316;8.114;2023-06-19T04:24:00;6.4;;;5.2;;
12721;SDS011;6425;50.316;8.114;2023-06-19T04:27:00;6.4;;;5.2;;
12721;SDS011;6425;50.316;8.114;2023-06-19T04:30:00;5.5;;;5;;
12721;SDS011;6425;50.316;8.114;2023-06-19T04:33:00;5.5;;;5;;
12721;SDS011;6425;50.316;8.114;2023-06-19T04:36:00;5.4;;;4.9;;
12721;SDS011;6425;50.316;8.114;2023-06-19T04:39:00;5.7;;;4.5;;
12721;SDS011;6425;50.316;8.114;2023-06-19T04:42:00;5.7;;;4.5;;
12721;SDS011;6425;50.316;8.114;2023-06-19T04:45:00;5.1;;;4.6;;
12721;SDS011;6425;50.316;8.114;2023-06-19T04:48:00;5.1;;;4.6;;
12721;SDS011;6425;50.316;8.114;2023-06-19T04:51:00;5.1;;;4.1;;
12721;SDS011;6425;50.316;8.114;2023-06-19T04:54:00;6.6;;;4.5;;
12721;SDS011;6425;50.316;8.114;2023-06-19T04:57:00;6.6;;;4.5;;
12721;SDS011;6425;50.316;8.114;2023-06-19T05:00:00;4.1;;;3.8;;
12721;SDS011;6425;50.316;8.114;2023-06-19T05:03:00;4.1;;;3.8;;
12721;SDS011;6425;50.316;8.114;2023-06-19T05:06:00;4.2;;;3.8;;
12721;SDS011;6425;50.316;8.114;2023-06-19T05:09:00;4.1;;;3.5;;
12721;SDS011;6425;50.316;8.114;2023-06-19T05:12:00;4.1;;;3.5;;
12721;SDS011;6425;50.316;8.114;2023-06-19T05:15:00;3.8;;;3.6;;
12721;SDS011;6425;50.316;8.114;2023-06-19T05:18:00;3.8;;;3.6;;
12721;SDS011;6425;50.316;8.114;2023-06-19T05:21:00;4.2;;;3.8;;
12721;SDS011;6425;50.316;8.114;2023-06-19T05:24:00;4.2;;;3.9;;
12721;SDS011;6425;50.316;8.114;2023-06-19T05:27:00;4.2;;;3.9;;
12721;SDS011;6425;50.316;8.114;2023-06-19T05:30:00;4.1;;;3.7;;
12721;SDS011;6425;50.316;8.114;2023-06-19T05:33:00;4.1;;;3.7;;
12721;SDS011;6425;50.316;8.114;2023-06-19T05:36:00;3.8;;;3.5;;
12721;SDS011;6425;50.316;8.114;2023-06-19T05:39:00;8.9;;;3.8;;
12721;SDS011;6425;50.316;8.114;2023-06-19T05:42:00;8.9;;;3.8;;
12721;SDS011;6425;50.316;8.114;2023-06-19T05:45:00;3.8;;;3.4;;
12721;SDS011;6425;50.316;8.114;2023-06-19T05:48:00;3.8;;;3.4;;
12721;SDS011;6425;50.316;8.114;2023-06-19T05:51:00;6;;;3.6;;
12721;SDS011;6425;50.316;8.114;2023-06-19T05:54:00;4.1;;;3.7;;
12721;SDS011;6425;50.316;8.114;2023-06-19T05:57:00;4.1;;;3.7;;
12721;SDS011;6425;50.316;8.114;2023-06-19T06:00:00;4.3;;;3.3;;
12721;SDS011;6425;50.316;8.114;2023-06-19T06:03:00;4.3;;;3.3;;
12721;SDS011;6425;50.316;8.114;2023-06-19T06:06:00;5.1;;;3.7;;
12721;SDS011;6425;50.316;8.114;2023-06-19T06:09:00;4.1;;;3.7;;
12721;SDS011;6425;50.316;8.114;2023-06-19T06:12:00;4.1;;;3.7;;
12721;SDS011;6425;50.316;8.114;2023-06-19T06:15:00;6.4;;;4.1;;
12721;SDS011;6425;50.316;8.114;2023-06-19T06:18:00;6.5;;;4.1;;
12721;SDS011;6425;50.316;8.114;2023-06-19T06:21:00;6.8;;;4.2;;
12721;SDS011;6425;50.316;8.114;2023-06-19T06:24:00;4;;;3.7;;
12721;SDS011;6425;50.316;8.114;2023-06-19T06:27:00;4;;;3.7;;
12721;SDS011;6425;50.316;8.114;2023-06-19T06:30:00;4.7;;;4.3;;
12721;SDS011;6425;50.316;8.114;2023-06-19T06:33:00;5;;;4.3;;
12721;SDS011;6425;50.316;8.114;2023-06-19T06:36:00;5.2;;;4.4;;
12721;SDS011;6425;50.316;8.114;2023-06-19T06:39:00;6.7;;;4.9;;
12721;SDS011;6425;50.316;8.114;2023-06-19T06:42:00;6.7;;;4.9;;
12721;SDS011;6425;50.316;8.114;2023-06-19T06:45:00;5.1;;;4.3;;
12721;SDS011;6425;50.316;8.114;2023-06-19T06:48:00;4.9;;;4.4;;
12721;SDS011;6425;50.316;8.114;2023-06-19T06:51:00;4.9;;;4.4;;
12721;SDS011;6425;50.316;8.114;2023-06-19T06:54:00;5.1;;;4.6;;
12721;SDS011;6425;50.316;8.114;2023-06-19T06:57:00;5.1;;;4.6;;
12721;SDS011;6425;50.316;8.114;2023-06-19T07:00:00;5.8;;;5.2;;
12721;SDS011;6425;50.316;8.114;2023-06-19T07:03:00;6.6;;;5.2;;
12721;SDS011;6425;50.316;8.114;2023-06-19T07:06:00;6.6;;;5.2;;
12721;SDS011;6425;50.316;8.114;2023-06-19T07:09:00;7.9;;;5.3;;
12721;SDS011;6425;50.316;8.114;2023-06-19T07:12:00;7.9;;;5.3;;
12721;SDS011;6425;50.316;8.114;2023-06-19T07:15:00;5.4;;;4.9;;
12721;SDS011;6425;50.316;8.114;2023-06-19T07:18:00;5.5;;;5.1;;
12721;SDS011;6425;50.316;8.114;2023-06-19T07:21:00;5.5;;;5.1;;
12721;SDS011;6425;50.316;8.114;2023-06-19T07:24:00;6.2;;;5.6;;
12721;SDS011;6425;50.316;8.114;2023-06-19T07:27:00;6.2;;;5.6;;
12721;SDS011;6425;50.316;8.114;2023-06-19T07:30:00;6.1;;;5.6;;
12721;SDS011;6425;50.316;8.114;2023-06-19T07:33:00;5.8;;;5.3;;
12721;SDS011;6425;50.316;8.114;2023-06-19T07:36:00;5.8;;;5.3;;
12721;SDS011;6425;50.316;8.114;2023-06-19T07:39:00;8.3;;;5.5;;
12721;SDS011;6425;50.316;8.114;2023-06-19T07:42:00;8.3;;;5.5;;
12721;SDS011;6425;50.316;8.114;2023-06-19T07:45:00;8.6;;;5.8;;
12721;SDS011;6425;50.316;8.114;2023-06-19T07:48:00;6.6;;;5.6;;
12721;SDS011;6425;50.316;8.114;2023-06-19T07:51:00;6.6;;;5.6;;
12721;SDS011;6425;50.316;8.114;2023-06-19T07:54:00;6;;;5.1;;
12721;SDS011;6425;50.316;8.114;2023-06-19T07:57:00;6;;;5.1;;
12721;SDS011;6425;50.316;8.114;2023-06-19T08:00:00;8.8;;;5.6;;
12721;SDS011;6425;50.316;8.114;2023-06-19T08:03:00;6;;;5.4;;
12721;SDS011;6425;50.316;8.114;2023-06-19T08:06:00;6;;;5.4;;
12721;SDS011;6425;50.316;8.114;2023-06-19T08:09:00;5.7;;;5.1;;
12721;SDS011;6425;50.316;8.114;2023-06-19T08:12:00;5.7;;;5.1;;
12721;SDS011;6425;50.316;8.114;2023-06-19T08:15:00;6.7;;;5.3;;
12721;SDS011;6425;50.316;8.114;2023-06-19T08:18:00;8.4;;;5.3;;
12721;SDS011;6425;50.316;8.114;2023-06-19T08:21:00;8.4;;;5.3;;
12721;SDS011;6425;50.316;8.114;2023-06-19T08:24:00;5.5;;;4.7;;
12721;SDS011;6425;50.316;8.114;2023-06-19T08:27:00;5.5;;;4.7;;
12721;SDS011;6425;50.316;8.114;2023-06-19T08:30:00;5.9;;;5.2;;
12721;SDS011;6425;50.316;8.114;2023-06-19T08:33:00;5.2;;;4.7;;
12721;SDS011;6425;50.316;8.114;2023-06-19T08:36:00;5.2;;;4.7;;
12721;SDS011;6425;50.316;8.114;2023-06-19T08:39:00;5.1;;;4.7;;
12721;SDS011;6425;50.316;8.114;2023-06-19T08:42:00;5.1;;;4.7;;
12721;SDS011;6425;50.316;8.114;2023-06-19T08:45:00;4.8;;;4.4;;
12721;SDS011;6425;50.316;8.114;2023-06-19T08:48:00;5.3;;;4.7;;
12721;SDS011;6425;50.316;8.114;2023-06-19T08:51:00;5.3;;;4.7;;
12721;SDS011;6425;50.316;8.114;2023-06-19T08:54:01;5.3;;;4.8;;
12721;SDS011;6425;50.316;8.114;2023-06-19T08:57:00;5.3;;;4.8;;
12721;SDS011;6425;50.316;8.114;2023-06-19T09:00:00;4.9;;;4.5;;
12721;SDS011;6425;50.316;8.114;2023-06-19T09:03:00;4.3;;;4;;
12721;SDS011;6425;50.316;8.114;2023-06-19T09:06:02;4.3;;;4;;
12721;SDS011;6425;50.316;8.114;2023-06-19T09:09:00;4.8;;;4.4;;
12721;SDS011;6425;50.316;8.114;2023-06-19T09:12:00;4.8;;;4.4;;
12721;SDS011;6425;50.316;8.114;2023-06-19T09:15:00;5.2;;;4.2;;
12721;SDS011;6425;50.316;8.114;2023-06-19T09:18:00;4.6;;;4.2;;
12721;SDS011;6425;50.316;8.114;2023-06-19T09:21:00;4.6;;;4.2;;
12721;SDS011;6425;50.316;8.114;2023-06-19T09:24:02;4.7;;;4.4;;
12721;SDS011;6425;50.316;8.114;2023-06-19T09:27:05;4.7;;;4.4;;
12721;SDS011;6425;50.316;8.114;2023-06-19T09:30:00;5;;;4;;
12721;SDS011;6425;50.316;8.114;2023-06-19T09:33:05;4.7;;;4.3;;
12721;SDS011;6425;50.316;8.114;2023-06-19T09:36:00;4.7;;;4.3;;
12721;SDS011;6425;50.316;8.114;2023-06-19T09:39:00;5.1;;;3.9;;
12721;SDS011;6425;50.316;8.114;2023-06-19T09:42:00;5.1;;;3.9;;
12721;SDS011;6425;50.316;8.114;2023-06-19T09:45:01;4.9;;;4.4;;
12721;SDS011;6425;50.316;8.114;2023-06-19T09:48:00;4.6;;;4.2;;
12721;SDS011;6425;50.316;8.114;2023-06-19T09:51:01;4.6;;;4.2;;
12721;SDS011;6425;50.316;8.114;2023-06-19T09:54:00;5.6;;;4.3;;
12721;SDS011;6425;50.316;8.114;2023-06-19T09:57:00;5.6;;;4.3;;
12721;SDS011;6425;50.316;8.114;2023-06-19T10:00:00;5.1;;;4.7;;
12721;SDS011;6425;50.316;8.114;2023-06-19T10:03:00;4.8;;;4.4;;
12721;SDS011;6425;50.316;8.114;2023-06-19T10:06:00;4.8;;;4.4;;
12721;SDS011;6425;50.316;8.114;2023-06-19T10:09:07;4.9;;;4.2;;
12721;SDS011;6425;50.316;8.114;2023-06-19T10:12:00;4.9;;;4.2;;
12721;SDS011;6425;50.316;8.114;2023-06-19T10:15:07;5.2;;;4.2;;
12721;SDS011;6425;50.316;8.114;2023-06-19T10:18:00;4.9;;;4.5;;
12721;SDS011;6425;50.316;8.114;2023-06-19T10:21:00;4.9;;;4.5;;
12721;SDS011;6425;50.316;8.114;2023-06-19T10:24:01;5.1;;;4.6;;
12721;SDS011;6425;50.316;8.114;2023-06-19T10:27:00;5.1;;;4.6;;
12721;SDS011;6425;50.316;8.114;2023-06-19T10:30:00;5.7;;;4.7;;
12721;SDS011;6425;50.316;8.114;2023-06-19T10:33:00;7.2;;;4.7;;
12721;SDS011;6425;50.316;8.114;2023-06-19T10:36:00;7.2;;;4.7;;
12721;SDS011;6425;50.316;8.114;2023-06-19T10:39:00;6.5;;;5.1;;
12721;SDS011;6425;50.316;8.114;2023-06-19T10:42:00;6.5;;;5.1;;
12721;SDS011;6425;50.316;8.114;2023-06-19T10:45:01;5.2;;;4.8;;
12721;SDS011;6425;50.316;8.114;2023-06-19T10:48:00;4.7;;;4.3;;
12721;SDS011;6425;50.316;8.114;2023-06-19T10:51:00;4.7;;;4.3;;
12721;SDS011;6425;50.316;8.114;2023-06-19T10:54:00;5.4;;;4;;
12721;SDS011;6425;50.316;8.114;2023-06-19T10:57:03;5.4;;;4;;
12721;SDS011;6425;50.316;8.114;2023-06-19T11:00:00;4.7;;;4.3;;
12721;SDS011;6425;50.316;8.114;2023-06-19T11:03:00;5.9;;;3.9;;
12721;SDS011;6425;50.316;8.114;2023-06-19T11:06:00;5.9;;;3.9;;
12721;SDS011;6425;50.316;8.114;2023-06-19T11:09:00;4.3;;;4;;
12721;SDS011;6425;50.316;8.114;2023-06-19T11:12:00;4.3;;;4;;
12721;SDS011;6425;50.316;8.114;2023-06-19T11:15:03;5.5;;;4.3;;
12721;SDS011;6425;50.316;8.114;2023-06-19T11:18:00;4.3;;;3.9;;
12721;SDS011;6425;50.316;8.114;2023-06-19T11:21:00;4.3;;;3.9;;
12721;SDS011;6425;50.316;8.114;2023-06-19T11:24:00;4.2;;;3.8;;
12721;SDS011;6425;50.316;8.114;2023-06-19T11:27:00;4.2;;;3.8;;
12721;SDS011;6425;50.316;8.114;2023-06-19T11:30:00;4;;;3.5;;
12721;SDS011;6425;50.316;8.114;2023-06-19T11:33:00;5.3;;;3.9;;
12721;SDS011;6425;50.316;8.114;2023-06-19T11:36:00;5.3;;;3.9;;
12721;SDS011;6425;50.316;8.114;2023-06-19T11:39:00;4;;;3.7;;
12721;SDS011;6425;50.316;8.114;2023-06-19T11:42:00;4;;;3.7;;
12721;SDS011;6425;50.316;8.114;2023-06-19T11:45:00;4.6;;;3.6;;
12721;SDS011;6425;50.316;8.114;2023-06-19T11:48:00;3.4;;;3.1;;
12721;SDS011;6425;50.316;8.114;2023-06-19T11:51:00;3.4;;;3.1;;
12721;SDS011;6425;50.316;8.114;2023-06-19T11:54:00;3.4;;;3.1;;
12721;SDS011;6425;50.316;8.114;2023-06-19T11:57:00;3.4;;;3.1;;
12721;SDS011;6425;50.316;8.114;2023-06-19T12:00:00;4.5;;;3.7;;
12721;SDS011;6425;50.316;8.114;2023-06-19T12:03:00;4.7;;;4.3;;
12721;SDS011;6425;50.316;8.114;2023-06-19T12:06:00;4.7;;;4.3;;
12721;SDS011;6425;50.316;8.114;2023-06-19T12:09:00;5;;;3.9;;
12721;SDS011;6425;50.316;8.114;2023-06-19T12:12:00;5;;;3.9;;
12721;SDS011;6425;50.316;8.114;2023-06-19T12:15:00;4;;;3.7;;
12721;SDS011;6425;50.316;8.114;2023-06-19T12:18:00;4.6;;;3.9;;
12721;SDS011;6425;50.316;8.114;2023-06-19T12:21:00;4.6;;;3.9;;
12721;SDS011;6425;50.316;8.114;2023-06-19T12:24:00;5.3;;;4;;
12721;SDS011;6425;50.316;8.114;2023-06-19T12:27:00;5.3;;;4;;
12721;SDS011;6425;50.316;8.114;2023-06-19T12:30:00;4.3;;;3.9;;
12721;SDS011;6425;50.316;8.114;2023-06-19T12:33:00;4.3;;;3.9;;
12721;SDS011;6425;50.316;8.114;2023-06-19T12:36:00;4.3;;;3.9;;
12721;SDS011;6425;50.316;8.114;2023-06-19T12:39:00;4.8;;;4.4;;
12721;SDS011;6425;50.316;8.114;2023-06-19T12:42:00;4.8;;;4.4;;
12721;SDS011;6425;50.316;8.114;2023-06-19T12:45:00;4.3;;;3.9;;
12721;SDS011;6425;50.316;8.114;2023-06-19T12:48:00;4.3;;;4;;
12721;SDS011;6425;50.316;8.114;2023-06-19T12:51:00;4.3;;;4;;
12721;SDS011;6425;50.316;8.114;2023-06-19T12:54:00;4.7;;;4.3;;
12721;SDS011;6425;50.316;8.114;2023-06-19T12:57:00;4.7;;;4.3;;
12721;SDS011;6425;50.316;8.114;2023-06-19T13:00:00;4.5;;;4.2;;
12721;SDS011;6425;50.316;8.114;2023-06-19T13:03:00;5;;;4.5;;
12721;SDS011;6425;50.316;8.114;2023-06-19T13:06:00;5;;;4.5;;
12721;SDS011;6425;50.316;8.114;2023-06-19T13:09:00;4.1;;;3.8;;
12721;SDS011;6425;50.316;8.114;2023-06-19T13:12:00;4.1;;;3.8;;
12721;SDS011;6425;50.316;8.114;2023-06-19T13:15:00;4.4;;;4;;
12721;SDS011;6425;50.316;8.114;2023-06-19T13:18:00;4.5;;;4.1;;
12721;SDS011;6425;50.316;8.114;2023-06-19T13:21:00;4.5;;;4.1;;
12721;SDS011;6425;50.316;8.114;2023-06-19T13:24:00;4.8;;;4.4;;
12721;SDS011;6425;50.316;8.114;2023-06-19T13:27:00;4.8;;;4.4;;
12721;SDS011;6425;50.316;8.114;2023-06-19T13:30:00;4.5;;;4.1;;
12721;SDS011;6425;50.316;8.114;2023-06-19T13:33:00;4.3;;;4;;
12721;SDS011;6425;50.316;8.114;2023-06-19T13:36:00;4.3;;;4;;
12721;SDS011;6425;50.316;8.114;2023-06-19T13:39:00;4.3;;;4;;
12721;SDS011;6425;50.316;8.114;2023-06-19T13:42:00;4.3;;;4;;
12721;SDS011;6425;50.316;8.114;2023-06-19T13:45:00;5;;;4.7;;
12721;SDS011;6425;50.316;8.114;2023-06-19T13:48:00;4.1;;;3.8;;
12721;SDS011;6425;50.316;8.114;2023-06-19T13:51:00;4.1;;;3.8;;
12721;SDS011;6425;50.316;8.114;2023-06-19T13:54:00;4.2;;;3.9;;
12721;SDS011;6425;50.316;8.114;2023-06-19T13:57:00;4.2;;;3.9;;
12721;SDS011;6425;50.316;8.114;2023-06-19T14:00:00;4.3;;;4;;
12721;SDS011;6425;50.316;8.114;2023-06-19T14:03:00;4.8;;;3.4;;
12721;SDS011;6425;50.316;8.114;2023-06-19T14:06:00;4.8;;;3.4;;
12721;SDS011;6425;50.316;8.114;2023-06-19T14:09:00;4;;;3.7;;
12721;SDS011;6425;50.316;8.114;2023-06-19T14:12:00;4;;;3.7;;
12721;SDS011;6425;50.316;8.114;2023-06-19T14:15:00;3.9;;;3.6;;
12721;SDS011;6425;50.316;8.114;2023-06-19T14:18:00;3.7;;;3.4;;
12721;SDS011;6425;50.316;8.114;2023-06-19T14:21:00;3.7;;;3.4;;
12721;SDS011;6425;50.316;8.114;2023-06-19T14:24:00;4.4;;;3.7;;
12721;SDS011;6425;50.316;8.114;2023-06-19T14:27:00;4.4;;;3.7;;
12721;SDS011;6425;50.316;8.114;2023-06-19T14:30:00;3.8;;;3.5;;
12721;SDS011;6425;50.316;8.114;2023-06-19T14:33:00;4.4;;;4;;
12721;SDS011;6425;50.316;8.114;2023-06-19T14:36:00;4.4;;;4;;
12721;SDS011;6425;50.316;8.114;2023-06-19T14:39:00;3.9;;;3.7;;
12721;SDS011;6425;50.316;8.114;2023-06-19T14:42:00;3.9;;;3.7;;
12721;SDS011;6425;50.316;8.114;2023-06-19T14:45:00;4.1;;;3.8;;
12721;SDS011;6425;50.316;8.114;2023-06-19T14:48:00;4.3;;;4;;
12721;SDS011;6425;50.316;8.114;2023-06-19T14:51:00;4.3;;;4;;
12721;SDS011;6425;50.316;8.114;2023-06-19T14:54:00;4;;;3.7;;
12721;SDS011;6425;50.316;8.114;2023-06-19T14:57:00;4;;;3.7;;
12721;SDS011;6425;50.316;8.114;2023-06-19T15:00:00;4.1;;;3.7;;
12721;SDS011;6425;50.316;8.114;2023-06-19T15:03:00;3.9;;;3.6;;
12721;SDS011;6425;50.316;8.114;2023-06-19T15:06:00;3.9;;;3.6;;
12721;SDS011;6425;50.316;8.114;2023-06-19T15:09:00;3.9;;;3.7;;
12721;SDS011;6425;50.316;8.114;2023-06-19T15:12:00;3.9;;;3.7;;
12721;SDS011;6425;50.316;8.114;2023-06-19T15:15:00;3.8;;;3.5;;
12721;SDS011;6425;50.316;8.114;2023-06-19T15:18:00;4.2;;;3.8;;
12721;SDS011;6425;50.316;8.114;2023-06-19T15:21:00;4.2;;;3.8;;
12721;SDS011;6425;50.316;8.114;2023-06-19T15:24:00;5.8;;;4;;
12721;SDS011;6425;50.316;8.114;2023-06-19T15:27:00;5.8;;;4;;
12721;SDS011;6425;50.316;8.114;2023-06-19T15:30:00;4.3;;;3.9;;
12721;SDS011;6425;50.316;8.114;2023-06-19T15:33:00;5.1;;;3.6;;
12721;SDS011;6425;50.316;8.114;2023-06-19T15:36:00;5.1;;;3.6;;
12721;SDS011;6425;50.316;8.114;2023-06-19T15:39:00;4;;;3.6;;
12721;SDS011;6425;50.316;8.114;2023-06-19T15:42:00;4;;;3.6;;
12721;SDS011;6425;50.316;8.114;2023-06-19T15:45:00;3.9;;;3.6;;
12721;SDS011;6425;50.316;8.114;2023-06-19T15:48:00;3.9;;;3.7;;
12721;SDS011;6425;50.316;8.114;2023-06-19T15:51:00;3.9;;;3.7;;
12721;SDS011;6425;50.316;8.114;2023-06-19T15:54:00;4.6;;;4.2;;
12721;SDS011;6425;50.316;8.114;2023-06-19T15:57:00;4.6;;;4.2;;
12721;SDS011;6425;50.316;8.114;2023-06-19T16:00:00;4.7;;;4.2;;
12721;SDS011;6425;50.316;8.114;2023-06-19T16:03:00;4.3;;;3.9;;
12721;SDS011;6425;50.316;8.114;2023-06-19T16:06:00;4.3;;;3.9;;
12721;SDS011;6425;50.316;8.114;2023-06-19T16:09:00;3.4;;;3.1;;
12721;SDS011;6425;50.316;8.114;2023-06-19T16:12:00;3.4;;;3.1;;
12721;SDS011;6425;50.316;8.114;2023-06-19T16:15:00;3;;;2.8;;
12721;SDS011;6425;50.316;8.114;2023-06-19T16:18:00;3.4;;;2.9;;
12721;SDS011;6425;50.316;8.114;2023-06-19T16:21:00;3.4;;;2.9;;
12721;SDS011;6425;50.316;8.114;2023-06-19T16:24:00;3.3;;;2.5;;
12721;SDS011;6425;50.316;8.114;2023-06-19T16:27:00;3.3;;;2.5;;
12721;SDS011;6425;50.316;8.114;2023-06-19T16:30:00;3.8;;;3.1;;
12721;SDS011;6425;50.316;8.114;2023-06-19T16:33:00;2.9;;;2.7;;
12721;SDS011;6425;50.316;8.114;2023-06-19T16:36:00;2.9;;;2.7;;
12721;SDS011;6425;50.316;8.114;2023-06-19T16:39:00;3.6;;;2.8;;
12721;SDS011;6425;50.316;8.114;2023-06-19T16:42:00;3.6;;;2.8;;
12721;SDS011;6425;50.316;8.114;2023-06-19T16:45:00;3.7;;;2.6;;
12721;SDS011;6425;50.316;8.114;2023-06-19T16:48:00;5;;;3.5;;
12721;SDS011;6425;50.316;8.114;2023-06-19T16:51:00;5;;;3.5;;
12721;SDS011;6425;50.316;8.114;2023-06-19T16:54:00;2.9;;;2.7;;
12721;SDS011;6425;50.316;8.114;2023-06-19T16:57:00;2.9;;;2.7;;
12721;SDS011;6425;50.316;8.114;2023-06-19T17:00:00;4.8;;;3.2;;
12721;SDS011;6425;50.316;8.114;2023-06-19T17:03:00;3;;;2.6;;
12721;SDS011;6425;50.316;8.114;2023-06-19T17:06:00;3;;;2.6;;
12721;SDS011;6425;50.316;8.114;2023-06-19T17:09:00;6.1;;;3.8;;
12721;SDS011;6425;50.316;8.114;2023-06-19T17:12:00;6.1;;;3.8;;
12721;SDS011;6425;50.316;8.114;2023-06-19T17:15:00;4.3;;;3.9;;
12721;SDS011;6425;50.316;8.114;2023-06-19T17:18:00;5.3;;;3.4;;
12721;SDS011;6425;50.316;8.114;2023-06-19T17:21:00;5.3;;;3.4;;
12721;SDS011;6425;50.316;8.114;2023-06-19T17:24:00;3.4;;;3.1;;
12721;SDS011;6425;50.316;8.114;2023-06-19T17:27:00;3.4;;;3.1;;
12721;SDS011;6425;50.316;8.114;2023-06-19T17:30:00;3.1;;;2.9;;
12721;SDS011;6425;50.316;8.114;2023-06-19T17:33:00;9.2;;;3.4;;
12721;SDS011;6425;50.316;8.114;2023-06-19T17:36:00;9.2;;;3.4;;
12721;SDS011;6425;50.316;8.114;2023-06-19T17:39:00;3.9;;;2.8;;
12721;SDS011;6425;50.316;8.114;2023-06-19T17:42:00;3.9;;;2.8;;
12721;SDS011;6425;50.316;8.114;2023-06-19T17:45:00;4;;;3.5;;
12721;SDS011;6425;50.316;8.114;2023-06-19T17:48:00;16.8;;;6.5;;
12721;SDS011;6425;50.316;8.114;2023-06-19T17:51:00;16.8;;;6.5;;
12721;SDS011;6425;50.316;8.114;2023-06-19T17:54:00;9.8;;;5.5;;
12721;SDS011;6425;50.316;8.114;2023-06-19T17:57:00;9.8;;;5.5;;
12721;SDS011;6425;50.316;8.114;2023-06-19T18:00:00;6;;;3.5;;
12721;SDS011;6425;50.316;8.114;2023-06-19T18:03:00;3.5;;;2.9;;
12721;SDS011;6425;50.316;8.114;2023-06-19T18:06:00;3.5;;;2.9;;
12721;SDS011;6425;50.316;8.114;2023-06-19T18:09:00;6.9;;;2.6;;
12721;SDS011;6425;50.316;8.114;2023-06-19T18:12:00;6.9;;;2.6;;
12721;SDS011;6425;50.316;8.114;2023-06-19T18:15:00;3.5;;;2.7;;
12721;SDS011;6425;50.316;8.114;2023-06-19T18:18:00;9.9;;;3.6;;
12721;SDS011;6425;50.316;8.114;2023-06-19T18:21:00;9.9;;;3.6;;
12721;SDS011;6425;50.316;8.114;2023-06-19T18:24:00;5.4;;;3;;
12721;SDS011;6425;50.316;8.114;2023-06-19T18:27:00;5.4;;;3;;
12721;SDS011;6425;50.316;8.114;2023-06-19T18:30:00;5.5;;;3.5;;
12721;SDS011;6425;50.316;8.114;2023-06-19T18:33:00;5.1;;;2.9;;
12721;SDS011;6425;50.316;8.114;2023-06-19T18:36:00;5.1;;;2.9;;
12721;SDS011;6425;50.316;8.114;2023-06-19T18:39:00;3.3;;;3;;
12721;SDS011;6425;50.316;8.114;2023-06-19T18:42:00;3.3;;;3;;
12721;SDS011;6425;50.316;8.114;2023-06-19T18:45:00;3.5;;;2.8;;
12721;SDS011;6425;50.316;8.114;2023-06-19T18:48:00;3.9;;;2.9;;
12721;SDS011;6425;50.316;8.114;2023-06-19T18:51:00;3.9;;;2.9;;
12721;SDS011;6425;50.316;8.114;2023-06-19T18:54:00;3.5;;;2.6;;